createdAt,value
2018-03-27T00:02:12.149Z,90.50
2018-03-27T00:04:40.370Z,90.80
2018-03-27T00:07:07.853Z,90.50
2018-03-27T00:09:35.308Z,90.60
2018-03-27T00:12:02.789Z,90.50
2018-03-27T00:14:30.238Z,90.60
2018-03-27T00:16:57.762Z,90.60
2018-03-27T00:19:25.246Z,90.60
2018-03-27T00:21:52.725Z,90.70
2018-03-27T00:24:20.202Z,90.70
2018-03-27T00:26:59.412Z,90.70
2018-03-27T00:29:38.721Z,90.70
2018-03-27T00:32:18.033Z,91.10
2018-03-27T00:34:57.429Z,90.70
2018-03-27T00:37:36.810Z,90.80
2018-03-27T00:40:16.109Z,90.80
2018-03-27T00:42:49.337Z,90.80
2018-03-27T00:45:16.822Z,90.80
2018-03-27T00:47:44.294Z,90.80
2018-03-27T00:50:11.845Z,90.80
2018-03-27T00:52:39.247Z,90.90
2018-03-27T00:55:06.750Z,90.80
2018-03-27T00:57:34.226Z,90.90
2018-03-27T01:00:01.692Z,90.90
2018-03-27T01:02:29.162Z,90.90
2018-03-27T01:04:56.618Z,90.90
2018-03-27T01:07:24.106Z,90.90
2018-03-27T01:09:51.568Z,90.90
2018-03-27T01:12:19.049Z,90.80
2018-03-27T01:14:46.509Z,90.90
2018-03-27T01:17:13.976Z,90.90
2018-03-27T01:19:41.430Z,90.90
2018-03-27T01:22:09.682Z,90.90
2018-03-27T01:24:37.151Z,90.90
2018-03-27T01:27:04.602Z,90.90
2018-03-27T01:29:32.076Z,90.90
2018-03-27T01:31:59.558Z,90.90
2018-03-27T01:34:27.794Z,90.90
2018-03-27T01:36:55.253Z,90.90
2018-03-27T01:39:22.742Z,90.90
2018-03-27T01:41:50.951Z,90.90
2018-03-27T01:44:18.437Z,90.90
2018-03-27T01:46:45.894Z,90.90
2018-03-27T01:49:13.369Z,90.90
2018-03-27T01:51:40.829Z,90.90
2018-03-27T01:54:08.314Z,90.90
2018-03-27T01:56:36.535Z,91.30
2018-03-27T01:59:03.993Z,90.90
2018-03-27T02:01:32.263Z,90.90
2018-03-27T02:03:59.711Z,90.90
2018-03-27T02:06:27.190Z,91.00
2018-03-27T02:08:54.644Z,91.00
2018-03-27T02:11:27.671Z,91.10
2018-03-27T02:14:01.616Z,91.10
2018-03-27T02:16:34.848Z,91.10
2018-03-27T02:19:11.557Z,91.30
2018-03-27T02:21:39.314Z,91.00
2018-03-27T02:24:22.434Z,91.00
2018-03-27T02:26:50.690Z,91.10
2018-03-27T02:29:18.178Z,91.10
2018-03-27T02:31:46.414Z,91.10
2018-03-27T02:34:13.888Z,91.10
2018-03-27T02:36:41.375Z,91.10
2018-03-27T02:39:09.641Z,91.10
2018-03-27T02:41:37.873Z,91.10
2018-03-27T02:44:05.333Z,91.10
2018-03-27T02:46:32.825Z,91.10
2018-03-27T02:49:01.067Z,91.10
2018-03-27T02:51:28.539Z,91.10
2018-03-27T02:53:56.000Z,91.10
2018-03-27T02:56:23.484Z,91.10
2018-03-27T02:58:51.690Z,91.10
2018-03-27T03:01:19.152Z,91.00
2018-03-27T03:03:46.643Z,91.00
2018-03-27T03:06:14.125Z,91.00
2018-03-27T03:08:42.358Z,91.10
2018-03-27T03:11:09.817Z,91.00
2018-03-27T03:13:37.332Z,91.00
2018-03-27T03:16:05.558Z,91.00
2018-03-27T03:18:33.050Z,91.00
2018-03-27T03:21:01.266Z,91.10
2018-03-27T03:23:28.747Z,91.00
2018-03-27T03:25:56.234Z,91.10
2018-03-27T03:28:24.485Z,91.10
2018-03-27T03:30:51.986Z,91.10
2018-03-27T03:33:19.478Z,91.10
2018-03-27T03:35:46.925Z,91.20
2018-03-27T03:38:14.409Z,91.20
2018-03-27T03:40:41.869Z,91.20
2018-03-27T03:43:09.355Z,91.20
2018-03-27T03:45:37.573Z,91.20
2018-03-27T03:48:05.055Z,91.20
2018-03-27T03:50:32.498Z,91.20
2018-03-27T03:52:59.994Z,91.20
2018-03-27T03:55:27.481Z,91.20
2018-03-27T03:57:55.686Z,91.20
2018-03-27T04:00:23.184Z,91.50
2018-03-27T04:02:50.642Z,91.20
2018-03-27T04:05:18.128Z,91.20
2018-03-27T04:07:45.609Z,91.20
2018-03-27T04:10:13.107Z,91.20
2018-03-27T04:12:40.601Z,91.20
2018-03-27T04:15:08.059Z,91.20
2018-03-27T04:17:35.534Z,91.20
2018-03-27T04:20:02.995Z,91.20
2018-03-27T04:22:30.458Z,91.20
2018-03-27T04:24:57.954Z,91.20
2018-03-27T04:27:25.451Z,91.20
2018-03-27T04:29:52.933Z,91.20
2018-03-27T04:32:20.417Z,91.20
2018-03-27T04:34:47.909Z,91.20
2018-03-27T04:37:16.166Z,91.20
2018-03-27T04:39:43.662Z,91.20
2018-03-27T04:42:11.129Z,91.50
2018-03-27T04:44:38.625Z,91.20
2018-03-27T04:47:06.081Z,91.20
2018-03-27T04:49:33.542Z,91.30
2018-03-27T04:52:01.001Z,91.20
2018-03-27T04:54:28.511Z,91.30
2018-03-27T04:56:56.076Z,91.30
2018-03-27T04:59:23.526Z,91.30
2018-03-27T05:01:50.998Z,91.30
2018-03-27T05:04:18.454Z,91.30
2018-03-27T05:06:45.926Z,91.30
2018-03-27T05:09:13.474Z,91.30
2018-03-27T05:11:40.938Z,91.30
2018-03-27T05:14:08.439Z,91.30
2018-03-27T05:16:36.653Z,91.50
2018-03-27T05:19:04.129Z,91.30
2018-03-27T05:21:32.353Z,91.30
2018-03-27T05:23:59.862Z,91.30
2018-03-27T05:26:27.330Z,91.40
2018-03-27T05:28:54.818Z,91.40
2018-03-27T05:31:23.046Z,91.40
2018-03-27T05:33:50.802Z,91.40
2018-03-27T05:36:18.265Z,91.50
2018-03-27T05:38:45.734Z,91.50
2018-03-27T05:41:13.239Z,91.50
2018-03-27T05:43:41.501Z,91.50
2018-03-27T05:46:09.737Z,91.50
2018-03-27T05:48:37.184Z,91.50
2018-03-27T05:51:04.656Z,91.50
2018-03-27T05:53:32.142Z,91.50
2018-03-27T05:55:59.631Z,91.50
2018-03-27T05:58:27.206Z,91.50
2018-03-27T06:00:54.662Z,91.50
2018-03-27T06:03:22.129Z,91.50
2018-03-27T06:05:49.577Z,91.50
2018-03-27T06:08:17.048Z,91.50
2018-03-27T06:10:44.525Z,91.50
2018-03-27T06:13:12.015Z,91.60
2018-03-27T06:15:40.238Z,91.50
2018-03-27T06:18:07.710Z,91.50
2018-03-27T06:20:35.193Z,91.50
2018-03-27T06:23:02.670Z,91.50
2018-03-27T06:25:30.159Z,91.50
2018-03-27T06:27:57.626Z,91.50
2018-03-27T06:30:25.130Z,91.50
2018-03-27T06:32:53.362Z,91.50
2018-03-27T06:35:20.817Z,91.50
2018-03-27T06:37:48.299Z,91.50
2018-03-27T06:40:15.769Z,91.50
2018-03-27T06:42:43.246Z,91.40
2018-03-27T06:45:10.703Z,91.50
2018-03-27T06:47:38.208Z,91.30
2018-03-27T06:50:05.753Z,91.40
2018-03-27T06:52:33.222Z,91.30
2018-03-27T06:55:00.693Z,91.40
2018-03-27T06:57:28.996Z,91.30
2018-03-27T06:59:56.459Z,91.40
2018-03-27T07:02:23.942Z,91.40
2018-03-27T07:04:51.418Z,91.70
2018-03-27T07:07:18.879Z,91.40
2018-03-27T07:09:46.354Z,91.20
2018-03-27T07:12:13.875Z,91.10
2018-03-27T07:14:42.099Z,91.30
2018-03-27T07:17:09.549Z,91.20
2018-03-27T07:19:37.062Z,91.20
2018-03-27T07:22:05.309Z,91.20
2018-03-27T07:24:32.776Z,91.20
2018-03-27T07:27:01.037Z,91.20
2018-03-27T07:29:29.289Z,91.10
2018-03-27T07:31:56.738Z,91.10
2018-03-27T07:34:24.198Z,91.10
2018-03-27T07:36:51.693Z,91.00
2018-03-27T07:39:19.914Z,90.90
2018-03-27T07:41:47.397Z,90.90
2018-03-27T07:44:15.625Z,90.80
2018-03-27T07:46:43.125Z,90.70
2018-03-27T07:49:10.588Z,90.70
2018-03-27T07:51:38.033Z,90.70
2018-03-27T07:54:05.533Z,90.60
2018-03-27T07:56:33.760Z,90.50
2018-03-27T07:59:01.248Z,90.50
2018-03-27T08:01:28.712Z,90.10
2018-03-27T08:03:56.197Z,90.10
2018-03-27T08:06:23.684Z,90.20
2018-03-27T08:08:51.334Z,90.20
2018-03-27T08:11:18.870Z,90.00
2018-03-27T08:13:46.293Z,89.30
2018-03-27T08:16:13.815Z,88.90
2018-03-27T08:18:41.292Z,88.40
2018-03-27T08:21:08.749Z,88.20
2018-03-27T08:23:37.026Z,87.30
2018-03-27T08:26:05.321Z,87.30
2018-03-27T08:28:32.818Z,86.80
2018-03-27T08:31:00.291Z,86.40
2018-03-27T08:33:27.733Z,85.90
2018-03-27T08:35:55.225Z,86.00
2018-03-27T08:38:22.694Z,85.50
2018-03-27T08:40:50.170Z,85.10
2018-03-27T08:43:17.704Z,84.60
2018-03-27T08:45:45.144Z,84.10
2018-03-27T08:48:12.642Z,84.30
2018-03-27T08:50:40.868Z,84.30
2018-03-27T08:53:08.330Z,84.30
2018-03-27T08:55:35.823Z,84.00
2018-03-27T08:58:03.279Z,83.70
2018-03-27T09:00:30.768Z,82.90
2018-03-27T09:02:59.031Z,82.10
2018-03-27T09:05:26.518Z,82.10
2018-03-27T09:07:53.978Z,81.10
2018-03-27T09:10:21.435Z,81.30
2018-03-27T09:12:48.918Z,80.70
2018-03-27T09:15:16.401Z,80.30
2018-03-27T09:17:43.897Z,80.00
2018-03-27T09:20:11.353Z,79.60
2018-03-27T09:22:39.578Z,79.30
2018-03-27T09:25:07.045Z,79.40
2018-03-27T09:27:34.553Z,79.60
2018-03-27T09:30:02.002Z,79.60
2018-03-27T09:32:29.458Z,79.20
2018-03-27T09:34:56.945Z,79.10
2018-03-27T09:37:24.450Z,79.00
2018-03-27T09:39:51.953Z,78.40
2018-03-27T09:42:19.415Z,78.40
2018-03-27T09:44:46.897Z,77.70
2018-03-27T09:47:14.365Z,77.50
2018-03-27T09:49:41.844Z,77.20
2018-03-27T09:52:09.330Z,77.20
2018-03-27T09:54:37.568Z,76.50
2018-03-27T09:57:05.025Z,76.50
2018-03-27T09:59:32.514Z,75.80
2018-03-27T10:02:00.837Z,75.80
2018-03-27T10:04:28.298Z,75.70
2018-03-27T10:06:55.770Z,75.50
2018-03-27T10:09:23.226Z,74.50
2018-03-27T10:11:50.698Z,74.20
2018-03-27T10:14:18.185Z,74.10
2018-03-27T10:16:46.468Z,73.80
2018-03-27T10:19:13.970Z,73.90
2018-03-27T10:21:41.442Z,73.40
2018-03-27T10:24:08.934Z,72.80
2018-03-27T10:26:36.393Z,71.90
2018-03-27T10:29:04.641Z,69.70
2018-03-27T10:31:32.119Z,69.60
2018-03-27T10:33:59.653Z,68.80
2018-03-27T10:36:27.166Z,69.40
2018-03-27T10:38:54.657Z,68.80
2018-03-27T10:41:22.124Z,68.50
2018-03-27T10:43:49.614Z,66.90
2018-03-27T10:46:17.066Z,65.20
2018-03-27T10:48:45.314Z,61.80
2018-03-27T10:51:12.814Z,61.80
2018-03-27T10:53:40.407Z,60.90
2018-03-27T10:56:07.876Z,59.50
2018-03-27T10:58:35.342Z,58.50
2018-03-27T11:01:02.860Z,57.00
2018-03-27T11:03:30.346Z,56.90
2018-03-27T11:05:57.813Z,54.30
2018-03-27T11:08:25.286Z,53.50
2018-03-27T11:10:52.750Z,51.50
2018-03-27T11:13:20.248Z,51.80
2018-03-27T11:15:47.718Z,51.50
2018-03-27T11:18:15.173Z,51.90
2018-03-27T11:20:42.641Z,50.50
2018-03-27T11:23:10.162Z,50.10
2018-03-27T11:25:37.634Z,48.20
2018-03-27T11:28:05.125Z,48.20
2018-03-27T11:30:32.605Z,46.40
2018-03-27T11:33:00.098Z,45.60
2018-03-27T11:35:27.600Z,45.00
2018-03-27T11:37:55.283Z,44.50
2018-03-27T11:40:22.726Z,45.60
2018-03-27T11:42:50.211Z,46.20
2018-03-27T11:45:17.725Z,47.70
2018-03-27T11:47:45.184Z,49.60
2018-03-27T11:50:12.655Z,48.00
2018-03-27T11:52:40.133Z,45.40
2018-03-27T11:55:08.369Z,46.20
2018-03-27T11:57:35.830Z,46.30
2018-03-27T12:00:03.310Z,46.20
2018-03-27T12:02:30.769Z,46.90
2018-03-27T12:04:58.262Z,47.00
2018-03-27T12:07:25.737Z,47.20
2018-03-27T12:09:53.195Z,47.70
2018-03-27T12:12:20.679Z,48.40
2018-03-27T12:14:48.158Z,48.40
2018-03-27T12:17:15.604Z,48.60
2018-03-27T12:19:43.086Z,48.90
2018-03-27T12:22:11.325Z,48.50
2018-03-27T12:24:38.806Z,48.50
2018-03-27T12:27:07.127Z,48.80
2018-03-27T12:29:34.589Z,48.30
2018-03-27T12:32:02.050Z,48.20
2018-03-27T12:34:29.598Z,48.30
2018-03-27T12:36:57.056Z,48.50
2018-03-27T12:39:24.542Z,48.90
2018-03-27T12:41:51.999Z,48.30
2018-03-27T12:44:20.258Z,48.40
2018-03-27T12:46:47.753Z,48.50
2018-03-27T12:49:15.218Z,48.30
2018-03-27T12:51:42.759Z,48.30
2018-03-27T12:54:10.288Z,48.20
2018-03-27T12:56:37.774Z,49.20
2018-03-27T12:59:05.242Z,48.60
2018-03-27T13:01:32.698Z,48.90
2018-03-27T13:04:00.162Z,49.20
2018-03-27T13:06:27.625Z,47.90
2018-03-27T13:08:55.100Z,46.20
2018-03-27T13:11:22.554Z,45.50
2018-03-27T13:13:50.052Z,44.30
2018-03-27T13:16:17.511Z,44.30
2018-03-27T13:18:44.950Z,43.50
2018-03-27T13:21:12.562Z,42.50
2018-03-27T13:23:40.025Z,42.30
2018-03-27T13:26:07.486Z,42.30
2018-03-27T13:28:35.006Z,42.10
2018-03-27T13:31:02.479Z,43.10
2018-03-27T13:33:29.955Z,42.00
2018-03-27T13:35:57.429Z,42.40
2018-03-27T13:38:24.916Z,41.50
2018-03-27T13:40:53.141Z,41.00
2018-03-27T13:43:20.589Z,41.00
2018-03-27T13:45:48.078Z,42.60
2018-03-27T13:48:15.525Z,43.60
2018-03-27T13:50:43.006Z,42.60
2018-03-27T13:53:10.441Z,43.20
2018-03-27T13:55:37.914Z,42.70
2018-03-27T13:58:05.392Z,43.80
2018-03-27T14:00:33.634Z,44.10
2018-03-27T14:03:01.110Z,44.10
2018-03-27T14:05:28.595Z,44.20
2018-03-27T14:07:56.029Z,45.20
2018-03-27T14:10:24.269Z,45.10
2018-03-27T14:12:51.754Z,45.00
2018-03-27T14:15:19.265Z,44.60
2018-03-27T14:17:46.718Z,45.00
2018-03-27T14:20:14.173Z,45.10
2018-03-27T14:22:41.660Z,44.80
2018-03-27T14:25:09.137Z,45.00
2018-03-27T14:27:36.602Z,45.10
2018-03-27T14:30:04.085Z,46.00
2018-03-27T14:32:31.557Z,46.10
2018-03-27T14:34:59.022Z,46.50
2018-03-27T14:37:26.497Z,46.80
2018-03-27T14:39:53.954Z,45.20
2018-03-27T14:42:21.483Z,46.00
2018-03-27T14:44:49.038Z,45.40
2018-03-27T14:47:16.514Z,45.50
2018-03-27T14:49:43.978Z,45.00
2018-03-27T14:52:11.457Z,45.70
2018-03-27T14:54:39.661Z,46.40
2018-03-27T14:57:07.884Z,46.20
2018-03-27T14:59:35.355Z,46.30
2018-03-27T15:02:02.818Z,45.20
2018-03-27T15:04:30.337Z,45.70
2018-03-27T15:06:57.789Z,46.50
2018-03-27T15:09:25.275Z,47.00
2018-03-27T15:11:52.855Z,46.90
2018-03-27T15:14:20.325Z,46.60
2018-03-27T15:16:47.833Z,46.60
2018-03-27T15:19:15.306Z,46.20
2018-03-27T15:21:42.784Z,47.20
2018-03-27T15:24:10.258Z,47.80
2018-03-27T15:26:38.495Z,46.40
2018-03-27T15:29:06.187Z,46.30
2018-03-27T15:31:33.671Z,46.10
2018-03-27T15:34:01.921Z,45.80
2018-03-27T15:36:29.388Z,45.80
2018-03-27T15:38:57.617Z,45.20
2018-03-27T15:41:25.980Z,45.40
2018-03-27T15:43:53.446Z,45.40
2018-03-27T15:46:20.914Z,45.50
2018-03-27T15:48:48.450Z,45.70
2018-03-27T15:51:15.866Z,46.70
2018-03-27T15:53:43.318Z,47.00
2018-03-27T15:56:10.782Z,46.70
2018-03-27T15:58:38.305Z,46.20
2018-03-27T16:01:05.769Z,46.30
2018-03-27T16:03:33.249Z,46.90
2018-03-27T16:06:00.694Z,47.20
2018-03-27T16:08:28.169Z,46.60
2018-03-27T16:10:56.413Z,46.20
2018-03-27T16:13:23.866Z,46.20
2018-03-27T16:15:51.341Z,46.50
2018-03-27T16:18:18.978Z,47.40
2018-03-27T16:20:46.433Z,46.60
2018-03-27T16:23:14.076Z,47.50
2018-03-27T16:25:41.553Z,47.60
2018-03-27T16:28:09.817Z,47.30
2018-03-27T16:30:37.274Z,47.30
2018-03-27T16:33:04.746Z,48.10
2018-03-27T16:35:33.014Z,48.60
2018-03-27T16:38:00.570Z,48.60
2018-03-27T16:40:28.126Z,49.40
2018-03-27T16:42:55.569Z,49.30
2018-03-27T16:45:23.051Z,49.40
2018-03-27T16:47:50.502Z,49.50
2018-03-27T16:50:18.017Z,50.10
2018-03-27T16:52:46.238Z,50.20
2018-03-27T16:55:13.727Z,50.20
2018-03-27T16:57:41.202Z,50.10
2018-03-27T17:00:09.425Z,50.90
2018-03-27T17:02:36.897Z,50.80
2018-03-27T17:05:04.341Z,50.70
2018-03-27T17:07:31.817Z,51.10
2018-03-27T17:09:59.277Z,51.20
2018-03-27T17:12:26.863Z,51.20
2018-03-27T17:14:55.106Z,51.50
2018-03-27T17:17:22.600Z,51.50
2018-03-27T17:19:50.062Z,51.80
2018-03-27T17:22:17.585Z,52.30
2018-03-27T17:24:45.160Z,51.90
2018-03-27T17:27:13.470Z,52.30
2018-03-27T17:29:40.991Z,52.30
2018-03-27T17:32:08.556Z,52.30
2018-03-27T17:34:36.867Z,52.90
2018-03-27T17:37:04.314Z,52.80
2018-03-27T17:39:31.793Z,53.20
2018-03-27T17:41:59.275Z,53.30
2018-03-27T17:44:26.742Z,53.40
2018-03-27T17:46:54.238Z,53.60
2018-03-27T17:49:21.697Z,53.90
2018-03-27T17:51:49.930Z,54.20
2018-03-27T17:54:17.393Z,54.20
2018-03-27T17:56:44.874Z,54.40
2018-03-27T17:59:13.135Z,55.00
2018-03-27T18:01:40.592Z,54.90
2018-03-27T18:04:08.076Z,55.30
2018-03-27T18:06:36.301Z,55.80
2018-03-27T18:09:03.831Z,55.70
2018-03-27T18:11:31.275Z,55.90
2018-03-27T18:13:58.722Z,56.20
2018-03-27T18:16:26.934Z,56.40
2018-03-27T18:18:54.463Z,56.70
2018-03-27T18:21:22.071Z,56.90
2018-03-27T18:23:50.294Z,57.30
2018-03-27T18:26:17.769Z,57.40
2018-03-27T18:28:45.216Z,57.60
2018-03-27T18:31:12.678Z,57.80
2018-03-27T18:33:40.127Z,58.20
2018-03-27T18:36:07.630Z,58.20
2018-03-27T18:38:35.074Z,58.20
2018-03-27T18:41:02.554Z,58.70
2018-03-27T18:43:30.034Z,58.80
2018-03-27T18:45:58.336Z,59.30
2018-03-27T18:48:25.825Z,59.10
2018-03-27T18:50:53.327Z,59.40
2018-03-27T18:53:21.574Z,60.00
2018-03-27T18:55:49.057Z,59.90
2018-03-27T18:58:36.488Z,60.10
2018-03-27T19:01:04.695Z,60.40
2018-03-27T19:03:32.157Z,60.30
2018-03-27T19:05:59.621Z,60.60
2018-03-27T19:08:27.082Z,60.70
2018-03-27T19:10:54.702Z,60.70
2018-03-27T19:13:22.961Z,61.00
2018-03-27T19:15:50.450Z,61.00
2018-03-27T19:18:17.898Z,61.30
2018-03-27T19:20:45.379Z,61.20
2018-03-27T19:23:12.851Z,61.50
2018-03-27T19:25:40.337Z,61.60
2018-03-27T19:28:07.806Z,62.00
2018-03-27T19:30:35.264Z,62.20
2018-03-27T19:33:02.754Z,62.30
2018-03-27T19:35:30.223Z,62.50
2018-03-27T19:37:57.676Z,62.50
2018-03-27T19:40:25.142Z,62.70
2018-03-27T19:42:52.594Z,62.90
2018-03-27T19:45:20.097Z,63.10
2018-03-27T19:47:47.555Z,63.20
2018-03-27T19:50:15.057Z,63.50
2018-03-27T19:52:42.514Z,63.70
2018-03-27T19:55:10.034Z,63.80
2018-03-27T19:57:37.515Z,64.00
2018-03-27T20:00:05.756Z,64.50
2018-03-27T20:02:33.230Z,64.50
2018-03-27T20:05:00.685Z,64.50
2018-03-27T20:07:28.181Z,64.80
2018-03-27T20:09:55.643Z,64.90
2018-03-27T20:12:23.114Z,65.30
2018-03-27T20:14:50.634Z,65.30
2018-03-27T20:17:18.906Z,65.90
2018-03-27T20:19:47.130Z,65.80
2018-03-27T20:22:14.575Z,65.80
2018-03-27T20:24:42.077Z,66.20
2018-03-27T20:27:09.538Z,66.40
2018-03-27T20:29:37.000Z,66.30
2018-03-27T20:32:04.514Z,66.50
2018-03-27T20:34:31.982Z,66.60
2018-03-27T20:36:59.429Z,66.90
2018-03-27T20:39:26.898Z,67.00
2018-03-27T20:41:54.353Z,67.20
2018-03-27T20:44:21.834Z,67.30
2018-03-27T20:46:49.318Z,67.50
2018-03-27T20:49:16.804Z,67.70
2018-03-27T20:51:44.285Z,67.90
2018-03-27T20:54:11.736Z,68.30
2018-03-27T20:56:39.226Z,68.50
2018-03-27T20:59:06.731Z,68.50
2018-03-27T21:01:34.213Z,68.60
2018-03-27T21:04:01.686Z,68.90
2018-03-27T21:06:29.177Z,69.60
2018-03-27T21:08:57.409Z,69.10
2018-03-27T21:11:24.867Z,69.20
2018-03-27T21:13:52.346Z,69.20
2018-03-27T21:16:19.818Z,69.20
2018-03-27T21:18:47.315Z,69.20
2018-03-27T21:21:14.814Z,69.20
2018-03-27T21:23:42.274Z,69.30
2018-03-27T21:26:09.733Z,69.40
2018-03-27T21:28:37.191Z,69.60
2018-03-27T21:31:04.681Z,69.90
2018-03-27T21:33:32.910Z,70.10
2018-03-27T21:36:00.402Z,70.10
2018-03-27T21:38:27.866Z,70.20
2018-03-27T21:40:56.121Z,70.20
2018-03-27T21:43:23.628Z,70.20
2018-03-27T21:45:51.104Z,70.20
2018-03-27T21:48:18.594Z,70.10
2018-03-27T21:50:46.074Z,70.40
2018-03-27T21:53:13.563Z,70.30
2018-03-27T21:55:41.019Z,70.30
2018-03-27T21:58:08.517Z,70.30
2018-03-27T22:00:35.946Z,70.30
2018-03-27T22:03:03.418Z,70.30
2018-03-27T22:05:31.051Z,70.30
2018-03-27T22:07:58.531Z,70.50
2018-03-27T22:10:26.785Z,70.40
2018-03-27T22:12:54.301Z,70.30
2018-03-27T22:15:21.770Z,70.50
2018-03-27T22:17:50.001Z,70.70
2018-03-27T22:20:17.449Z,70.60
2018-03-27T22:22:44.947Z,70.60
2018-03-27T22:25:12.429Z,70.60
2018-03-27T22:27:40.689Z,70.80
2018-03-27T22:30:08.901Z,70.70
2018-03-27T22:32:36.418Z,70.80
2018-03-27T22:35:03.866Z,70.80
2018-03-27T22:37:31.337Z,70.70
2018-03-27T22:39:59.557Z,70.70
2018-03-27T22:42:27.037Z,70.70
2018-03-27T22:44:54.480Z,70.90
2018-03-27T22:47:21.971Z,71.00
2018-03-27T22:49:49.433Z,71.10
2018-03-27T22:52:16.905Z,71.20
2018-03-27T22:54:45.122Z,71.10
2018-03-27T22:57:12.613Z,71.10
2018-03-27T22:59:40.078Z,71.20
2018-03-27T23:02:07.538Z,71.40
2018-03-27T23:04:35.005Z,71.20
2018-03-27T23:07:03.230Z,71.20
2018-03-27T23:09:30.875Z,71.20
2018-03-27T23:11:58.348Z,71.20
2018-03-27T23:14:25.825Z,71.20
2018-03-27T23:16:53.294Z,71.90
2018-03-27T23:19:20.761Z,71.10
2018-03-27T23:21:48.254Z,71.10
2018-03-27T23:24:15.743Z,71.20
2018-03-27T23:26:43.185Z,71.10
2018-03-27T23:29:10.777Z,71.10
2018-03-27T23:31:38.229Z,71.10
2018-03-27T23:34:05.725Z,71.00
2018-03-27T23:36:33.966Z,70.70
2018-03-27T23:39:01.418Z,70.70
2018-03-27T23:41:28.906Z,70.70
2018-03-27T23:43:56.362Z,70.80
2018-03-27T23:46:23.822Z,70.70
2018-03-27T23:48:52.045Z,70.70
2018-03-27T23:51:19.501Z,70.60
2018-03-27T23:53:46.961Z,70.60
2018-03-27T23:56:14.427Z,70.70
2018-03-27T23:58:41.901Z,70.70
